sensor_id;sensor_type;location;lat;lon;timestamp;P1;durP1;ratioP1;P2;durP2;ratioP2
27833;SDS011;15200;50.570;7.244;2023-02-15T00:00:50;45.30;;;23.43;;
27833;SDS011;15200;50.570;7.244;2023-02-15T00:03:17;44.53;;;22.67;;
27833;SDS011;15200;50.570;7.244;2023-02-15T00:05:44;46.37;;;22.20;;
27833;SDS011;15200;50.570;7.244;2023-02-15T00:08:12;46.43;;;22.60;;
27833;SDS011;15200;50.570;7.244;2023-02-15T00:10:39;51.70;;;25.43;;
27833;SDS011;15200;50.570;7.244;2023-02-15T00:13:06;48.47;;;22.33;;
27833;SDS011;15200;50.570;7.244;2023-02-15T00:15:33;49.03;;;23.50;;
27833;SDS011;15200;50.570;7.244;2023-02-15T00:18:01;53.87;;;24.10;;
27833;SDS011;15200;50.570;7.244;2023-02-15T00:20:28;49.57;;;23.50;;
27833;SDS011;15200;50.570;7.244;2023-02-15T00:22:55;50.43;;;25.60;;
27833;SDS011;15200;50.570;7.244;2023-02-15T00:25:23;52.23;;;23.00;;
27833;SDS011;15200;50.570;7.244;2023-02-15T00:27:50;51.73;;;22.40;;
27833;SDS011;15200;50.570;7.244;2023-02-15T00:30:17;48.73;;;23.77;;
27833;SDS011;15200;50.570;7.244;2023-02-15T00:32:46;45.07;;;22.73;;
27833;SDS011;15200;50.570;7.244;2023-02-15T00:35:14;51.07;;;26.00;;
27833;SDS011;15200;50.570;7.244;2023-02-15T00:37:41;50.40;;;23.50;;
27833;SDS011;15200;50.570;7.244;2023-02-15T00:40:09;49.67;;;24.90;;
27833;SDS011;15200;50.570;7.244;2023-02-15T00:42:36;49.57;;;21.43;;
27833;SDS011;15200;50.570;7.244;2023-02-15T00:45:03;48.67;;;23.73;;
27833;SDS011;15200;50.570;7.244;2023-02-15T00:47:31;51.33;;;24.73;;
27833;SDS011;15200;50.570;7.244;2023-02-15T00:49:58;47.47;;;23.17;;
27833;SDS011;15200;50.570;7.244;2023-02-15T00:52:25;48.47;;;23.57;;
27833;SDS011;15200;50.570;7.244;2023-02-15T00:54:53;48.20;;;23.43;;
27833;SDS011;15200;50.570;7.244;2023-02-15T00:57:20;46.70;;;22.63;;
27833;SDS011;15200;50.570;7.244;2023-02-15T00:59:47;48.67;;;23.23;;
27833;SDS011;15200;50.570;7.244;2023-02-15T01:02:14;48.90;;;24.93;;
27833;SDS011;15200;50.570;7.244;2023-02-15T01:04:42;49.77;;;24.17;;
27833;SDS011;15200;50.570;7.244;2023-02-15T01:07:09;45.43;;;22.10;;
27833;SDS011;15200;50.570;7.244;2023-02-15T01:09:36;45.43;;;20.17;;
27833;SDS011;15200;50.570;7.244;2023-02-15T01:12:04;53.50;;;24.37;;
27833;SDS011;15200;50.570;7.244;2023-02-15T01:14:31;45.63;;;21.47;;
27833;SDS011;15200;50.570;7.244;2023-02-15T01:16:58;48.17;;;22.13;;
27833;SDS011;15200;50.570;7.244;2023-02-15T01:19:26;43.13;;;21.43;;
27833;SDS011;15200;50.570;7.244;2023-02-15T01:21:53;49.60;;;24.00;;
27833;SDS011;15200;50.570;7.244;2023-02-15T01:24:20;47.20;;;23.10;;
27833;SDS011;15200;50.570;7.244;2023-02-15T01:26:48;46.27;;;22.27;;
27833;SDS011;15200;50.570;7.244;2023-02-15T01:29:15;45.23;;;22.47;;
27833;SDS011;15200;50.570;7.244;2023-02-15T01:31:42;48.57;;;22.97;;
27833;SDS011;15200;50.570;7.244;2023-02-15T01:34:10;43.17;;;22.10;;
27833;SDS011;15200;50.570;7.244;2023-02-15T01:36:37;46.57;;;22.37;;
27833;SDS011;15200;50.570;7.244;2023-02-15T01:39:04;46.63;;;21.33;;
27833;SDS011;15200;50.570;7.244;2023-02-15T01:41:33;45.33;;;20.47;;
27833;SDS011;15200;50.570;7.244;2023-02-15T01:44:01;46.60;;;22.23;;
27833;SDS011;15200;50.570;7.244;2023-02-15T01:49:03;47.33;;;22.63;;
27833;SDS011;15200;50.570;7.244;2023-02-15T01:51:31;44.43;;;22.73;;
27833;SDS011;15200;50.570;7.244;2023-02-15T01:54:01;47.37;;;20.87;;
27833;SDS011;15200;50.570;7.244;2023-02-15T01:56:29;42.50;;;19.83;;
27833;SDS011;15200;50.570;7.244;2023-02-15T01:58:56;44.73;;;20.67;;
27833;SDS011;15200;50.570;7.244;2023-02-15T02:01:25;47.90;;;22.37;;
27833;SDS011;15200;50.570;7.244;2023-02-15T02:06:24;49.37;;;23.23;;
27833;SDS011;15200;50.570;7.244;2023-02-15T02:08:52;44.90;;;23.10;;
27833;SDS011;15200;50.570;7.244;2023-02-15T02:11:19;41.23;;;20.13;;
27833;SDS011;15200;50.570;7.244;2023-02-15T02:13:47;45.63;;;20.80;;
27833;SDS011;15200;50.570;7.244;2023-02-15T02:17:02;45.87;;;22.13;;
27833;SDS011;15200;50.570;7.244;2023-02-15T02:18:50;47.70;;;22.27;;
27833;SDS011;15200;50.570;7.244;2023-02-15T02:26:45;45.57;;;22.97;;
27833;SDS011;15200;50.570;7.244;2023-02-15T02:31:54;45.93;;;22.27;;
27833;SDS011;15200;50.570;7.244;2023-02-15T02:34:30;44.27;;;21.70;;
27833;SDS011;15200;50.570;7.244;2023-02-15T02:37:09;48.73;;;21.77;;
27833;SDS011;15200;50.570;7.244;2023-02-15T02:42:25;42.77;;;20.83;;
27833;SDS011;15200;50.570;7.244;2023-02-15T02:44:57;45.33;;;21.40;;
27833;SDS011;15200;50.570;7.244;2023-02-15T02:49:58;40.53;;;20.33;;
27833;SDS011;15200;50.570;7.244;2023-02-15T02:55:29;40.40;;;20.60;;
27833;SDS011;15200;50.570;7.244;2023-02-15T02:57:35;38.33;;;20.20;;
27833;SDS011;15200;50.570;7.244;2023-02-15T03:00:04;36.50;;;19.13;;
27833;SDS011;15200;50.570;7.244;2023-02-15T03:02:35;38.63;;;19.20;;
27833;SDS011;15200;50.570;7.244;2023-02-15T03:05:03;47.43;;;18.83;;
27833;SDS011;15200;50.570;7.244;2023-02-15T03:07:32;41.87;;;19.90;;
27833;SDS011;15200;50.570;7.244;2023-02-15T03:10:00;39.77;;;20.63;;
27833;SDS011;15200;50.570;7.244;2023-02-15T03:12:29;41.63;;;19.43;;
27833;SDS011;15200;50.570;7.244;2023-02-15T03:15:07;39.23;;;19.47;;
27833;SDS011;15200;50.570;7.244;2023-02-15T03:17:36;35.23;;;17.60;;
27833;SDS011;15200;50.570;7.244;2023-02-15T03:20:06;35.77;;;18.73;;
27833;SDS011;15200;50.570;7.244;2023-02-15T03:22:36;37.67;;;18.37;;
27833;SDS011;15200;50.570;7.244;2023-02-15T03:25:05;40.90;;;17.97;;
27833;SDS011;15200;50.570;7.244;2023-02-15T03:27:35;38.33;;;19.77;;
27833;SDS011;15200;50.570;7.244;2023-02-15T03:30:02;40.33;;;20.53;;
27833;SDS011;15200;50.570;7.244;2023-02-15T03:32:30;36.57;;;18.90;;
27833;SDS011;15200;50.570;7.244;2023-02-15T03:34:59;41.20;;;19.20;;
27833;SDS011;15200;50.570;7.244;2023-02-15T03:37:28;36.67;;;19.50;;
27833;SDS011;15200;50.570;7.244;2023-02-15T03:39:56;41.97;;;18.63;;
27833;SDS011;15200;50.570;7.244;2023-02-15T03:42:26;39.23;;;19.27;;
27833;SDS011;15200;50.570;7.244;2023-02-15T03:44:57;35.73;;;16.37;;
27833;SDS011;15200;50.570;7.244;2023-02-15T03:47:29;38.63;;;18.20;;
27833;SDS011;15200;50.570;7.244;2023-02-15T03:49:57;38.00;;;17.07;;
27833;SDS011;15200;50.570;7.244;2023-02-15T03:52:24;39.47;;;18.77;;
27833;SDS011;15200;50.570;7.244;2023-02-15T03:54:52;37.37;;;19.00;;
27833;SDS011;15200;50.570;7.244;2023-02-15T03:57:24;37.13;;;18.13;;
27833;SDS011;15200;50.570;7.244;2023-02-15T04:00:19;36.27;;;19.40;;
27833;SDS011;15200;50.570;7.244;2023-02-15T04:05:44;36.43;;;19.13;;
27833;SDS011;15200;50.570;7.244;2023-02-15T04:08:11;35.60;;;18.37;;
27833;SDS011;15200;50.570;7.244;2023-02-15T04:10:39;38.47;;;18.27;;
27833;SDS011;15200;50.570;7.244;2023-02-15T04:13:23;36.80;;;18.47;;
27833;SDS011;15200;50.570;7.244;2023-02-15T04:15:47;37.03;;;18.07;;
27833;SDS011;15200;50.570;7.244;2023-02-15T04:18:33;36.73;;;18.77;;
27833;SDS011;15200;50.570;7.244;2023-02-15T04:21:19;38.20;;;18.90;;
27833;SDS011;15200;50.570;7.244;2023-02-15T04:24:04;40.63;;;19.43;;
27833;SDS011;15200;50.570;7.244;2023-02-15T04:26:50;37.03;;;18.27;;
27833;SDS011;15200;50.570;7.244;2023-02-15T04:29:21;36.63;;;17.17;;
27833;SDS011;15200;50.570;7.244;2023-02-15T04:31:49;38.60;;;18.60;;
27833;SDS011;15200;50.570;7.244;2023-02-15T04:34:16;38.90;;;19.47;;
27833;SDS011;15200;50.570;7.244;2023-02-15T04:36:43;35.47;;;16.77;;
27833;SDS011;15200;50.570;7.244;2023-02-15T04:39:14;35.53;;;18.83;;
27833;SDS011;15200;50.570;7.244;2023-02-15T04:41:42;31.77;;;16.13;;
27833;SDS011;15200;50.570;7.244;2023-02-15T04:44:09;36.13;;;17.30;;
27833;SDS011;15200;50.570;7.244;2023-02-15T04:46:36;27.77;;;12.60;;
27833;SDS011;15200;50.570;7.244;2023-02-15T04:49:04;31.87;;;17.23;;
27833;SDS011;15200;50.570;7.244;2023-02-15T04:51:31;34.87;;;16.93;;
27833;SDS011;15200;50.570;7.244;2023-02-15T04:53:59;37.93;;;18.00;;
27833;SDS011;15200;50.570;7.244;2023-02-15T04:56:26;36.40;;;18.07;;
27833;SDS011;15200;50.570;7.244;2023-02-15T04:58:55;36.63;;;17.63;;
27833;SDS011;15200;50.570;7.244;2023-02-15T05:01:22;32.07;;;16.40;;
27833;SDS011;15200;50.570;7.244;2023-02-15T05:03:49;37.07;;;18.57;;
27833;SDS011;15200;50.570;7.244;2023-02-15T05:06:17;34.13;;;17.17;;
27833;SDS011;15200;50.570;7.244;2023-02-15T05:08:44;34.63;;;17.40;;
27833;SDS011;15200;50.570;7.244;2023-02-15T05:11:11;37.73;;;16.80;;
27833;SDS011;15200;50.570;7.244;2023-02-15T05:13:39;37.20;;;17.30;;
27833;SDS011;15200;50.570;7.244;2023-02-15T05:16:06;28.60;;;16.30;;
27833;SDS011;15200;50.570;7.244;2023-02-15T05:18:33;28.43;;;14.87;;
27833;SDS011;15200;50.570;7.244;2023-02-15T05:21:01;35.43;;;16.57;;
27833;SDS011;15200;50.570;7.244;2023-02-15T05:23:28;28.03;;;13.23;;
27833;SDS011;15200;50.570;7.244;2023-02-15T05:25:55;34.73;;;16.50;;
27833;SDS011;15200;50.570;7.244;2023-02-15T05:28:40;33.13;;;15.67;;
27833;SDS011;15200;50.570;7.244;2023-02-15T05:31:15;32.10;;;16.47;;
27833;SDS011;15200;50.570;7.244;2023-02-15T05:33:42;34.97;;;15.53;;
27833;SDS011;15200;50.570;7.244;2023-02-15T05:36:10;33.70;;;15.73;;
27833;SDS011;15200;50.570;7.244;2023-02-15T05:38:37;31.17;;;16.87;;
27833;SDS011;15200;50.570;7.244;2023-02-15T05:41:05;27.87;;;14.53;;
27833;SDS011;15200;50.570;7.244;2023-02-15T05:43:33;28.53;;;15.50;;
27833;SDS011;15200;50.570;7.244;2023-02-15T05:46:01;32.53;;;15.83;;
27833;SDS011;15200;50.570;7.244;2023-02-15T05:48:28;30.07;;;14.53;;
27833;SDS011;15200;50.570;7.244;2023-02-15T05:51:05;32.73;;;16.30;;
27833;SDS011;15200;50.570;7.244;2023-02-15T05:53:33;26.10;;;14.87;;
27833;SDS011;15200;50.570;7.244;2023-02-15T05:56:01;28.33;;;15.10;;
27833;SDS011;15200;50.570;7.244;2023-02-15T05:58:30;33.67;;;16.33;;
27833;SDS011;15200;50.570;7.244;2023-02-15T06:00:57;29.93;;;14.07;;
27833;SDS011;15200;50.570;7.244;2023-02-15T06:03:25;27.40;;;14.10;;
27833;SDS011;15200;50.570;7.244;2023-02-15T06:05:54;28.17;;;15.00;;
27833;SDS011;15200;50.570;7.244;2023-02-15T06:08:21;29.77;;;14.73;;
27833;SDS011;15200;50.570;7.244;2023-02-15T06:10:49;31.83;;;16.00;;
27833;SDS011;15200;50.570;7.244;2023-02-15T06:13:16;29.07;;;14.73;;
27833;SDS011;15200;50.570;7.244;2023-02-15T06:15:43;29.30;;;15.27;;
27833;SDS011;15200;50.570;7.244;2023-02-15T06:18:11;31.33;;;14.97;;
27833;SDS011;15200;50.570;7.244;2023-02-15T06:20:38;29.60;;;15.47;;
27833;SDS011;15200;50.570;7.244;2023-02-15T06:23:05;31.10;;;16.23;;
27833;SDS011;15200;50.570;7.244;2023-02-15T06:25:33;23.50;;;13.83;;
27833;SDS011;15200;50.570;7.244;2023-02-15T06:28:00;29.60;;;14.90;;
27833;SDS011;15200;50.570;7.244;2023-02-15T06:30:27;26.97;;;14.17;;
27833;SDS011;15200;50.570;7.244;2023-02-15T06:32:54;25.67;;;14.50;;
27833;SDS011;15200;50.570;7.244;2023-02-15T06:35:22;27.03;;;13.57;;
27833;SDS011;15200;50.570;7.244;2023-02-15T06:37:49;27.13;;;13.87;;
27833;SDS011;15200;50.570;7.244;2023-02-15T06:40:17;30.33;;;15.20;;
27833;SDS011;15200;50.570;7.244;2023-02-15T06:42:44;29.50;;;15.13;;
27833;SDS011;15200;50.570;7.244;2023-02-15T06:45:11;26.03;;;13.47;;
27833;SDS011;15200;50.570;7.244;2023-02-15T06:47:39;22.73;;;12.00;;
27833;SDS011;15200;50.570;7.244;2023-02-15T06:50:06;29.33;;;14.47;;
27833;SDS011;15200;50.570;7.244;2023-02-15T06:52:34;31.20;;;15.27;;
27833;SDS011;15200;50.570;7.244;2023-02-15T06:55:01;29.43;;;14.73;;
27833;SDS011;15200;50.570;7.244;2023-02-15T06:57:28;28.93;;;14.63;;
27833;SDS011;15200;50.570;7.244;2023-02-15T06:59:56;32.20;;;15.70;;
27833;SDS011;15200;50.570;7.244;2023-02-15T07:02:24;28.57;;;15.00;;
27833;SDS011;15200;50.570;7.244;2023-02-15T07:04:51;31.57;;;14.33;;
27833;SDS011;15200;50.570;7.244;2023-02-15T07:07:19;29.70;;;14.63;;
27833;SDS011;15200;50.570;7.244;2023-02-15T07:09:46;34.77;;;15.87;;
27833;SDS011;15200;50.570;7.244;2023-02-15T07:12:13;31.97;;;15.40;;
27833;SDS011;15200;50.570;7.244;2023-02-15T07:14:59;30.47;;;14.87;;
27833;SDS011;15200;50.570;7.244;2023-02-15T07:17:26;26.77;;;15.37;;
27833;SDS011;15200;50.570;7.244;2023-02-15T07:19:54;29.73;;;14.80;;
27833;SDS011;15200;50.570;7.244;2023-02-15T07:22:21;32.50;;;15.47;;
27833;SDS011;15200;50.570;7.244;2023-02-15T07:24:49;30.00;;;15.40;;
27833;SDS011;15200;50.570;7.244;2023-02-15T07:27:18;30.47;;;14.37;;
27833;SDS011;15200;50.570;7.244;2023-02-15T07:29:45;33.20;;;15.57;;
27833;SDS011;15200;50.570;7.244;2023-02-15T07:32:12;32.23;;;15.33;;
27833;SDS011;15200;50.570;7.244;2023-02-15T07:34:40;28.47;;;15.50;;
27833;SDS011;15200;50.570;7.244;2023-02-15T07:37:07;29.77;;;13.73;;
27833;SDS011;15200;50.570;7.244;2023-02-15T07:39:35;30.17;;;14.53;;
27833;SDS011;15200;50.570;7.244;2023-02-15T07:42:02;27.63;;;14.17;;
27833;SDS011;15200;50.570;7.244;2023-02-15T07:44:30;32.50;;;15.43;;
27833;SDS011;15200;50.570;7.244;2023-02-15T07:46:57;29.63;;;14.10;;
27833;SDS011;15200;50.570;7.244;2023-02-15T07:49:24;33.53;;;14.37;;
27833;SDS011;15200;50.570;7.244;2023-02-15T07:51:52;31.87;;;14.50;;
27833;SDS011;15200;50.570;7.244;2023-02-15T07:54:19;28.10;;;13.97;;
27833;SDS011;15200;50.570;7.244;2023-02-15T07:56:46;32.13;;;14.03;;
27833;SDS011;15200;50.570;7.244;2023-02-15T07:59:14;26.30;;;14.83;;
27833;SDS011;15200;50.570;7.244;2023-02-15T08:01:41;28.77;;;13.80;;
27833;SDS011;15200;50.570;7.244;2023-02-15T08:04:08;26.77;;;13.23;;
27833;SDS011;15200;50.570;7.244;2023-02-15T08:06:37;32.03;;;15.23;;
27833;SDS011;15200;50.570;7.244;2023-02-15T08:09:05;22.97;;;13.83;;
27833;SDS011;15200;50.570;7.244;2023-02-15T08:11:34;27.03;;;13.03;;
27833;SDS011;15200;50.570;7.244;2023-02-15T08:14:13;30.73;;;13.70;;
27833;SDS011;15200;50.570;7.244;2023-02-15T08:16:45;28.20;;;13.80;;
27833;SDS011;15200;50.570;7.244;2023-02-15T08:19:16;24.07;;;12.00;;
27833;SDS011;15200;50.570;7.244;2023-02-15T08:21:44;25.97;;;12.83;;
27833;SDS011;15200;50.570;7.244;2023-02-15T08:24:13;22.87;;;11.83;;
27833;SDS011;15200;50.570;7.244;2023-02-15T08:26:41;28.13;;;14.50;;
27833;SDS011;15200;50.570;7.244;2023-02-15T08:29:10;25.63;;;13.13;;
27833;SDS011;15200;50.570;7.244;2023-02-15T08:31:38;27.23;;;13.63;;
27833;SDS011;15200;50.570;7.244;2023-02-15T08:34:07;26.13;;;13.17;;
27833;SDS011;15200;50.570;7.244;2023-02-15T08:36:35;22.47;;;12.53;;
27833;SDS011;15200;50.570;7.244;2023-02-15T08:39:03;22.67;;;13.13;;
27833;SDS011;15200;50.570;7.244;2023-02-15T08:41:32;24.17;;;12.33;;
27833;SDS011;15200;50.570;7.244;2023-02-15T08:44:01;17.27;;;9.53;;
27833;SDS011;15200;50.570;7.244;2023-02-15T08:46:30;20.90;;;12.07;;
27833;SDS011;15200;50.570;7.244;2023-02-15T08:48:57;21.23;;;11.50;;
27833;SDS011;15200;50.570;7.244;2023-02-15T08:51:26;23.13;;;11.87;;
27833;SDS011;15200;50.570;7.244;2023-02-15T08:53:54;19.63;;;11.00;;
27833;SDS011;15200;50.570;7.244;2023-02-15T08:56:23;17.80;;;10.63;;
27833;SDS011;15200;50.570;7.244;2023-02-15T08:58:51;22.27;;;12.13;;
27833;SDS011;15200;50.570;7.244;2023-02-15T09:01:19;18.77;;;10.57;;
27833;SDS011;15200;50.570;7.244;2023-02-15T09:03:48;18.67;;;10.70;;
27833;SDS011;15200;50.570;7.244;2023-02-15T09:06:16;17.90;;;10.17;;
27833;SDS011;15200;50.570;7.244;2023-02-15T09:08:43;18.87;;;10.53;;
27833;SDS011;15200;50.570;7.244;2023-02-15T09:11:17;18.10;;;10.57;;
27833;SDS011;15200;50.570;7.244;2023-02-15T09:13:47;17.60;;;10.90;;
27833;SDS011;15200;50.570;7.244;2023-02-15T09:16:14;20.63;;;10.87;;
27833;SDS011;15200;50.570;7.244;2023-02-15T09:18:43;21.17;;;9.77;;
27833;SDS011;15200;50.570;7.244;2023-02-15T09:21:11;19.47;;;11.27;;
27833;SDS011;15200;50.570;7.244;2023-02-15T09:23:41;20.67;;;10.50;;
27833;SDS011;15200;50.570;7.244;2023-02-15T09:26:09;19.03;;;10.73;;
27833;SDS011;15200;50.570;7.244;2023-02-15T09:28:37;18.60;;;10.40;;
27833;SDS011;15200;50.570;7.244;2023-02-15T09:31:14;17.60;;;10.40;;
27833;SDS011;15200;50.570;7.244;2023-02-15T09:33:42;19.43;;;10.73;;
27833;SDS011;15200;50.570;7.244;2023-02-15T09:36:44;18.37;;;11.20;;
27833;SDS011;15200;50.570;7.244;2023-02-15T09:38:45;17.83;;;11.10;;
27833;SDS011;15200;50.570;7.244;2023-02-15T09:41:16;18.73;;;11.17;;
27833;SDS011;15200;50.570;7.244;2023-02-15T09:43:42;19.30;;;10.83;;
27833;SDS011;15200;50.570;7.244;2023-02-15T09:46:20;20.70;;;11.47;;
27833;SDS011;15200;50.570;7.244;2023-02-15T09:48:45;21.90;;;11.00;;
27833;SDS011;15200;50.570;7.244;2023-02-15T09:51:18;21.00;;;10.93;;
27833;SDS011;15200;50.570;7.244;2023-02-15T09:56:25;18.53;;;10.90;;
27833;SDS011;15200;50.570;7.244;2023-02-15T09:58:55;20.13;;;12.00;;
27833;SDS011;15200;50.570;7.244;2023-02-15T10:06:33;17.70;;;10.63;;
27833;SDS011;15200;50.570;7.244;2023-02-15T10:09:24;20.17;;;11.23;;
27833;SDS011;15200;50.570;7.244;2023-02-15T10:12:04;20.47;;;11.33;;
27833;SDS011;15200;50.570;7.244;2023-02-15T10:14:33;17.83;;;11.50;;
27833;SDS011;15200;50.570;7.244;2023-02-15T10:17:03;17.97;;;11.17;;
27833;SDS011;15200;50.570;7.244;2023-02-15T10:22:17;16.73;;;10.50;;
27833;SDS011;15200;50.570;7.244;2023-02-15T10:24:51;17.40;;;11.33;;
27833;SDS011;15200;50.570;7.244;2023-02-15T10:27:18;18.23;;;11.03;;
27833;SDS011;15200;50.570;7.244;2023-02-15T10:29:49;17.93;;;11.57;;
27833;SDS011;15200;50.570;7.244;2023-02-15T10:45:33;16.20;;;10.00;;
27833;SDS011;15200;50.570;7.244;2023-02-15T10:48:16;17.35;;;10.45;;
27833;SDS011;15200;50.570;7.244;2023-02-15T10:50:44;19.00;;;9.83;;
27833;SDS011;15200;50.570;7.244;2023-02-15T10:53:14;16.48;;;10.05;;
27833;SDS011;15200;50.570;7.244;2023-02-15T10:55:45;17.27;;;10.60;;
27833;SDS011;15200;50.570;7.244;2023-02-15T10:58:17;16.87;;;10.03;;
27833;SDS011;15200;50.570;7.244;2023-02-15T11:00:42;16.90;;;10.72;;
27833;SDS011;15200;50.570;7.244;2023-02-15T11:03:15;17.45;;;10.43;;
27833;SDS011;15200;50.570;7.244;2023-02-15T11:08:10;18.65;;;10.45;;
27833;SDS011;15200;50.570;7.244;2023-02-15T11:10:42;16.87;;;9.90;;
27833;SDS011;15200;50.570;7.244;2023-02-15T11:13:15;15.98;;;9.50;;
27833;SDS011;15200;50.570;7.244;2023-02-15T11:15:56;13.60;;;7.62;;
27833;SDS011;15200;50.570;7.244;2023-02-15T11:18:28;13.08;;;8.95;;
27833;SDS011;15200;50.570;7.244;2023-02-15T11:21:00;17.15;;;10.30;;
27833;SDS011;15200;50.570;7.244;2023-02-15T11:23:26;16.13;;;8.83;;
27833;SDS011;15200;50.570;7.244;2023-02-15T11:25:59;14.83;;;9.15;;
27833;SDS011;15200;50.570;7.244;2023-02-15T11:28:36;17.23;;;10.48;;
27833;SDS011;15200;50.570;7.244;2023-02-15T11:30:57;14.25;;;8.93;;
27833;SDS011;15200;50.570;7.244;2023-02-15T11:33:30;17.17;;;9.48;;
27833;SDS011;15200;50.570;7.244;2023-02-15T11:36:05;16.45;;;9.93;;
27833;SDS011;15200;50.570;7.244;2023-02-15T11:38:33;13.60;;;9.48;;
27833;SDS011;15200;50.570;7.244;2023-02-15T11:41:05;14.73;;;8.30;;
27833;SDS011;15200;50.570;7.244;2023-02-15T11:43:47;13.55;;;8.58;;
27833;SDS011;15200;50.570;7.244;2023-02-15T11:46:14;13.32;;;8.63;;
27833;SDS011;15200;50.570;7.244;2023-02-15T11:48:42;13.62;;;9.38;;
27833;SDS011;15200;50.570;7.244;2023-02-15T11:51:11;11.38;;;8.43;;
27833;SDS011;15200;50.570;7.244;2023-02-15T11:53:38;12.20;;;8.20;;
27833;SDS011;15200;50.570;7.244;2023-02-15T11:56:12;12.88;;;8.80;;
27833;SDS011;15200;50.570;7.244;2023-02-15T11:58:40;17.73;;;8.98;;
27833;SDS011;15200;50.570;7.244;2023-02-15T12:01:09;16.30;;;9.23;;
27833;SDS011;15200;50.570;7.244;2023-02-15T12:03:49;13.60;;;8.63;;
27833;SDS011;15200;50.570;7.244;2023-02-15T12:06:29;13.48;;;8.63;;
27833;SDS011;15200;50.570;7.244;2023-02-15T12:09:10;13.78;;;8.93;;
27833;SDS011;15200;50.570;7.244;2023-02-15T12:11:36;13.28;;;8.68;;
27833;SDS011;15200;50.570;7.244;2023-02-15T12:14:07;14.20;;;8.75;;
27833;SDS011;15200;50.570;7.244;2023-02-15T12:16:42;12.55;;;9.08;;
27833;SDS011;15200;50.570;7.244;2023-02-15T12:19:56;13.85;;;8.18;;
27833;SDS011;15200;50.570;7.244;2023-02-15T12:21:39;15.00;;;9.50;;
27833;SDS011;15200;50.570;7.244;2023-02-15T12:26:56;14.30;;;8.78;;
27833;SDS011;15200;50.570;7.244;2023-02-15T12:29:25;11.57;;;8.35;;
27833;SDS011;15200;50.570;7.244;2023-02-15T12:31:53;12.60;;;8.20;;
27833;SDS011;15200;50.570;7.244;2023-02-15T12:34:22;16.07;;;8.65;;
27833;SDS011;15200;50.570;7.244;2023-02-15T12:36:51;15.93;;;8.50;;
27833;SDS011;15200;50.570;7.244;2023-02-15T12:44:26;12.75;;;8.30;;
27833;SDS011;15200;50.570;7.244;2023-02-15T12:49:31;13.22;;;8.80;;
27833;SDS011;15200;50.570;7.244;2023-02-15T12:52:00;13.60;;;8.30;;
27833;SDS011;15200;50.570;7.244;2023-02-15T12:54:31;11.33;;;8.15;;
27833;SDS011;15200;50.570;7.244;2023-02-15T12:57:12;11.43;;;8.73;;
27833;SDS011;15200;50.570;7.244;2023-02-15T12:59:29;13.28;;;9.23;;
27833;SDS011;15200;50.570;7.244;2023-02-15T13:01:56;13.43;;;8.78;;
27833;SDS011;15200;50.570;7.244;2023-02-15T13:04:27;13.55;;;8.95;;
27833;SDS011;15200;50.570;7.244;2023-02-15T13:06:57;15.20;;;9.00;;
27833;SDS011;15200;50.570;7.244;2023-02-15T13:14:46;13.32;;;8.65;;
27833;SDS011;15200;50.570;7.244;2023-02-15T13:17:16;13.05;;;8.45;;
27833;SDS011;15200;50.570;7.244;2023-02-15T13:19:53;15.95;;;8.88;;
27833;SDS011;15200;50.570;7.244;2023-02-15T13:22:28;14.05;;;9.18;;
27833;SDS011;15200;50.570;7.244;2023-02-15T13:24:56;12.20;;;8.05;;
27833;SDS011;15200;50.570;7.244;2023-02-15T13:27:29;13.30;;;8.43;;
27833;SDS011;15200;50.570;7.244;2023-02-15T13:29:54;14.87;;;9.20;;
27833;SDS011;15200;50.570;7.244;2023-02-15T13:32:25;12.90;;;9.00;;
27833;SDS011;15200;50.570;7.244;2023-02-15T13:35:01;15.38;;;8.30;;
27833;SDS011;15200;50.570;7.244;2023-02-15T13:37:43;14.23;;;9.33;;
27833;SDS011;15200;50.570;7.244;2023-02-15T13:42:55;16.82;;;9.85;;
27833;SDS011;15200;50.570;7.244;2023-02-15T13:48:11;18.95;;;9.50;;
27833;SDS011;15200;50.570;7.244;2023-02-15T13:53:17;14.63;;;10.18;;
27833;SDS011;15200;50.570;7.244;2023-02-15T13:58:18;11.68;;;8.68;;
27833;SDS011;15200;50.570;7.244;2023-02-15T14:00:48;13.13;;;9.00;;
27833;SDS011;15200;50.570;7.244;2023-02-15T14:03:19;14.28;;;9.35;;
27833;SDS011;15200;50.570;7.244;2023-02-15T14:05:49;19.65;;;9.60;;
27833;SDS011;15200;50.570;7.244;2023-02-15T14:11:01;16.57;;;9.55;;
27833;SDS011;15200;50.570;7.244;2023-02-15T14:16:09;14.35;;;9.80;;
27833;SDS011;15200;50.570;7.244;2023-02-15T14:18:36;15.68;;;9.68;;
27833;SDS011;15200;50.570;7.244;2023-02-15T14:23:43;13.88;;;8.98;;
27833;SDS011;15200;50.570;7.244;2023-02-15T14:31:30;18.73;;;8.85;;
27833;SDS011;15200;50.570;7.244;2023-02-15T14:33:57;14.13;;;9.20;;
27833;SDS011;15200;50.570;7.244;2023-02-15T14:36:25;17.12;;;9.78;;
27833;SDS011;15200;50.570;7.244;2023-02-15T14:39:03;13.58;;;9.03;;
27833;SDS011;15200;50.570;7.244;2023-02-15T14:41:39;13.32;;;8.83;;
27833;SDS011;15200;50.570;7.244;2023-02-15T14:49:25;12.75;;;8.53;;
27833;SDS011;15200;50.570;7.244;2023-02-15T15:04:43;12.30;;;8.28;;
27833;SDS011;15200;50.570;7.244;2023-02-15T15:07:18;13.65;;;9.00;;
27833;SDS011;15200;50.570;7.244;2023-02-15T15:09:46;13.72;;;8.73;;
27833;SDS011;15200;50.570;7.244;2023-02-15T15:12:15;14.03;;;8.18;;
27833;SDS011;15200;50.570;7.244;2023-02-15T15:14:44;16.17;;;8.93;;
27833;SDS011;15200;50.570;7.244;2023-02-15T15:22:18;19.27;;;8.83;;
27833;SDS011;15200;50.570;7.244;2023-02-15T15:24:51;16.07;;;8.90;;
27833;SDS011;15200;50.570;7.244;2023-02-15T15:30:00;14.60;;;7.95;;
27833;SDS011;15200;50.570;7.244;2023-02-15T15:32:28;13.75;;;7.92;;
27833;SDS011;15200;50.570;7.244;2023-02-15T15:35:05;12.07;;;8.25;;
27833;SDS011;15200;50.570;7.244;2023-02-15T15:45:36;14.73;;;8.28;;
27833;SDS011;15200;50.570;7.244;2023-02-15T15:50:55;13.88;;;8.25;;
27833;SDS011;15200;50.570;7.244;2023-02-15T15:53:20;15.45;;;8.53;;
27833;SDS011;15200;50.570;7.244;2023-02-15T15:55:50;11.55;;;8.05;;
27833;SDS011;15200;50.570;7.244;2023-02-15T15:58:18;15.65;;;8.90;;
27833;SDS011;15200;50.570;7.244;2023-02-15T16:00:49;13.08;;;8.30;;
27833;SDS011;15200;50.570;7.244;2023-02-15T16:03:24;12.63;;;7.45;;
27833;SDS011;15200;50.570;7.244;2023-02-15T16:05:52;15.98;;;7.72;;
27833;SDS011;15200;50.570;7.244;2023-02-15T16:10:56;14.10;;;7.00;;
27833;SDS011;15200;50.570;7.244;2023-02-15T16:13:23;13.93;;;7.97;;
27833;SDS011;15200;50.570;7.244;2023-02-15T16:15:51;13.75;;;7.92;;
27833;SDS011;15200;50.570;7.244;2023-02-15T16:18:24;14.28;;;7.80;;
27833;SDS011;15200;50.570;7.244;2023-02-15T16:20:57;12.85;;;7.97;;
27833;SDS011;15200;50.570;7.244;2023-02-15T16:26:18;15.35;;;8.53;;
27833;SDS011;15200;50.570;7.244;2023-02-15T16:28:54;11.43;;;7.97;;
27833;SDS011;15200;50.570;7.244;2023-02-15T16:31:18;12.43;;;8.20;;
27833;SDS011;15200;50.570;7.244;2023-02-15T16:33:51;14.60;;;8.28;;
27833;SDS011;15200;50.570;7.244;2023-02-15T16:36:21;15.80;;;8.68;;
27833;SDS011;15200;50.570;7.244;2023-02-15T16:41:28;15.25;;;8.15;;
27833;SDS011;15200;50.570;7.244;2023-02-15T16:43:48;14.40;;;8.95;;
27833;SDS011;15200;50.570;7.244;2023-02-15T16:46:24;13.22;;;8.50;;
27833;SDS011;15200;50.570;7.244;2023-02-15T16:48:51;15.28;;;8.15;;
27833;SDS011;15200;50.570;7.244;2023-02-15T16:51:25;16.87;;;8.70;;
27833;SDS011;15200;50.570;7.244;2023-02-15T16:53:48;12.50;;;8.38;;